createdAt,value
2022-10-17T00:01:10.955Z,4.57
2022-10-17T00:03:39.543Z,4.10
2022-10-17T00:06:08.664Z,4.20
2022-10-17T00:08:37.103Z,3.67
2022-10-17T00:11:07.221Z,6.30
2022-10-17T00:13:35.300Z,6.20
2022-10-17T00:16:04.662Z,7.63
2022-10-17T00:18:32.230Z,8.43
2022-10-17T00:20:59.815Z,10.97
2022-10-17T00:23:30.164Z,10.60
2022-10-17T00:26:01.468Z,10.50
2022-10-17T00:28:29.253Z,11.33
2022-10-17T00:30:57.759Z,11.93
2022-10-17T00:33:26.797Z,10.57
2022-10-17T00:36:03.712Z,10.00
2022-10-17T00:38:31.242Z,8.93
2022-10-17T00:40:58.965Z,8.57
2022-10-17T00:43:26.701Z,8.50
2022-10-17T00:45:54.235Z,8.53
2022-10-17T00:48:23.418Z,8.10
2022-10-17T00:50:52.530Z,7.77
2022-10-17T00:53:20.362Z,7.70
2022-10-17T00:55:50.855Z,9.40
2022-10-17T00:58:19.251Z,7.80
2022-10-17T01:00:48.216Z,7.50
2022-10-17T01:03:15.786Z,7.33
2022-10-17T01:05:43.868Z,7.03
2022-10-17T01:08:13.563Z,7.20
2022-10-17T01:10:48.860Z,7.33
2022-10-17T01:13:24.469Z,7.17
2022-10-17T01:15:59.431Z,7.20
2022-10-17T01:18:43.755Z,8.33
2022-10-17T01:21:26.609Z,7.20
2022-10-17T01:24:24.218Z,6.83
2022-10-17T01:27:09.556Z,5.80
2022-10-17T01:29:54.214Z,5.90
2022-10-17T01:32:25.500Z,6.07
2022-10-17T01:34:56.406Z,5.73
2022-10-17T01:37:29.492Z,6.00
2022-10-17T01:40:01.884Z,5.60
2022-10-17T01:42:34.688Z,5.20
2022-10-17T01:45:05.354Z,4.90
2022-10-17T01:47:35.042Z,5.20
2022-10-17T01:50:06.497Z,4.50
2022-10-17T01:52:36.584Z,4.73
2022-10-17T01:55:06.671Z,4.30
2022-10-17T01:57:37.316Z,5.30
2022-10-17T02:00:06.815Z,4.70
2022-10-17T02:02:36.059Z,5.07
2022-10-17T02:05:04.823Z,4.87
2022-10-17T02:07:32.379Z,4.73
2022-10-17T02:10:00.028Z,4.47
2022-10-17T02:12:46.706Z,4.67
2022-10-17T02:15:25.363Z,5.07
2022-10-17T02:17:59.272Z,6.20
2022-10-17T02:20:29.723Z,5.50
2022-10-17T02:22:59.676Z,5.80
2022-10-17T02:25:35.381Z,6.30
2022-10-17T02:28:10.643Z,6.10
2022-10-17T02:30:40.974Z,5.87
2022-10-17T02:33:12.748Z,5.93
2022-10-17T02:35:43.122Z,5.63
2022-10-17T02:38:12.302Z,5.83
2022-10-17T02:40:40.542Z,5.53
2022-10-17T02:43:08.828Z,5.63
2022-10-17T02:45:38.317Z,5.50
2022-10-17T02:48:07.240Z,6.17
2022-10-17T02:50:43.392Z,6.07
2022-10-17T02:53:15.347Z,6.57
2022-10-17T02:55:48.534Z,6.30
2022-10-17T02:58:20.618Z,6.70
2022-10-17T03:00:48.777Z,6.63
2022-10-17T03:03:20.927Z,6.47
2022-10-17T03:05:49.838Z,6.37
2022-10-17T03:08:17.641Z,7.53
2022-10-17T03:10:45.264Z,6.23
2022-10-17T03:13:12.834Z,7.90
2022-10-17T03:15:40.368Z,7.30
2022-10-17T03:18:07.948Z,6.43
2022-10-17T03:20:35.625Z,6.60
2022-10-17T03:23:04.633Z,7.00
2022-10-17T03:25:32.238Z,8.10
2022-10-17T03:28:01.465Z,9.30
2022-10-17T03:30:29.304Z,8.07
2022-10-17T03:32:58.363Z,7.87
2022-10-17T03:35:26.073Z,9.27
2022-10-17T03:37:53.755Z,8.00
2022-10-17T03:40:22.582Z,6.87
2022-10-17T03:42:50.178Z,6.90
2022-10-17T03:45:17.774Z,6.00
2022-10-17T03:47:45.346Z,9.10
2022-10-17T03:50:12.988Z,8.03
2022-10-17T03:52:40.620Z,8.00
2022-10-17T03:55:08.971Z,8.10
2022-10-17T03:57:40.189Z,7.50
2022-10-17T04:00:11.185Z,6.57
2022-10-17T04:02:38.777Z,6.57
2022-10-17T04:05:07.402Z,7.23
2022-10-17T04:07:37.171Z,7.10
2022-10-17T04:10:05.557Z,8.90
2022-10-17T04:12:33.089Z,8.47
2022-10-17T04:15:01.997Z,10.30
2022-10-17T04:17:35.806Z,11.17
2022-10-17T04:20:06.444Z,11.00
2022-10-17T04:22:34.018Z,10.33
2022-10-17T04:25:01.778Z,10.90
2022-10-17T04:27:29.340Z,10.97
2022-10-17T04:29:56.889Z,10.43
2022-10-17T04:32:26.619Z,9.30
2022-10-17T04:34:54.283Z,10.27
2022-10-17T04:37:21.797Z,12.03
2022-10-17T04:39:49.481Z,12.33
2022-10-17T04:42:17.061Z,10.13
2022-10-17T04:44:44.581Z,11.23
2022-10-17T04:47:12.098Z,9.27
2022-10-17T04:52:13.548Z,7.93
2022-10-17T04:54:41.092Z,8.97
2022-10-17T04:57:08.658Z,8.27
2022-10-17T04:59:36.212Z,7.00
2022-10-17T05:02:03.772Z,6.53
2022-10-17T05:04:31.376Z,6.13
2022-10-17T05:07:00.391Z,6.13
2022-10-17T05:09:28.278Z,6.87
2022-10-17T05:11:55.857Z,7.53
2022-10-17T05:14:23.382Z,13.10
2022-10-17T05:16:51.023Z,12.10
2022-10-17T05:19:18.981Z,10.37
2022-10-17T05:21:46.581Z,8.40
2022-10-17T05:24:16.292Z,7.77
2022-10-17T05:26:43.987Z,7.53
2022-10-17T05:29:11.627Z,6.70
2022-10-17T05:31:39.203Z,6.00
2022-10-17T05:34:09.045Z,5.97
2022-10-17T05:36:39.103Z,5.93
2022-10-17T05:39:06.707Z,6.47
2022-10-17T05:41:35.820Z,5.60
2022-10-17T05:44:05.510Z,6.23
2022-10-17T05:46:33.609Z,5.83
2022-10-17T05:49:01.167Z,5.47
2022-10-17T05:51:28.824Z,6.07
2022-10-17T05:53:56.488Z,5.87
2022-10-17T05:56:24.087Z,6.07
2022-10-17T05:58:56.245Z,5.60
2022-10-17T06:01:26.292Z,5.30
2022-10-17T06:03:53.883Z,4.73
2022-10-17T06:06:22.234Z,5.40
2022-10-17T06:08:49.936Z,4.83
2022-10-17T06:11:17.494Z,5.10
2022-10-17T06:13:45.159Z,4.97
2022-10-17T06:16:14.289Z,5.13
2022-10-17T06:18:41.887Z,4.50
2022-10-17T06:21:11.735Z,4.93
2022-10-17T06:23:39.325Z,4.83
2022-10-17T06:26:07.631Z,6.03
2022-10-17T06:28:35.720Z,5.67
2022-10-17T06:31:06.503Z,6.37
2022-10-17T06:33:35.477Z,5.50
2022-10-17T06:36:03.598Z,5.57
2022-10-17T06:38:31.436Z,5.17
2022-10-17T06:41:04.908Z,5.97
2022-10-17T06:43:32.495Z,5.33
2022-10-17T06:46:00.220Z,5.20
2022-10-17T06:48:27.937Z,5.10
2022-10-17T06:50:59.802Z,5.53
2022-10-17T06:53:28.600Z,5.50
2022-10-17T06:56:01.165Z,5.60
2022-10-17T06:58:29.060Z,5.43
2022-10-17T07:01:00.930Z,5.10
2022-10-17T07:03:29.433Z,5.13
2022-10-17T07:05:58.759Z,4.87
2022-10-17T07:08:26.790Z,5.00
2022-10-17T07:10:54.839Z,5.23
2022-10-17T07:13:23.035Z,5.27
2022-10-17T07:15:50.750Z,4.90
2022-10-17T07:18:18.343Z,5.07
2022-10-17T07:20:53.891Z,4.87
2022-10-17T07:23:22.968Z,4.17
2022-10-17T07:25:50.614Z,4.33
2022-10-17T07:28:18.336Z,4.93
2022-10-17T07:30:49.469Z,4.17
2022-10-17T07:33:19.690Z,3.90
2022-10-17T07:35:47.497Z,3.90
2022-10-17T07:38:15.150Z,4.00
2022-10-17T07:40:44.155Z,4.83
2022-10-17T07:43:11.720Z,3.50
2022-10-17T07:45:39.380Z,3.60
2022-10-17T07:48:07.083Z,3.30
2022-10-17T07:50:34.717Z,3.80
2022-10-17T07:53:02.269Z,3.80
2022-10-17T07:55:29.824Z,3.53
2022-10-17T07:58:00.398Z,3.20
2022-10-17T08:00:28.351Z,3.53
2022-10-17T08:02:55.896Z,3.97
2022-10-17T08:05:23.556Z,3.70
2022-10-17T08:07:51.140Z,3.30
2022-10-17T08:10:19.184Z,3.40
2022-10-17T08:12:46.760Z,3.30
2022-10-17T08:15:15.628Z,3.90
2022-10-17T08:17:43.240Z,3.23
2022-10-17T08:20:12.021Z,3.50
2022-10-17T08:22:39.621Z,3.37
2022-10-17T08:25:08.304Z,3.70
2022-10-17T08:27:36.104Z,3.13
2022-10-17T08:30:03.948Z,2.73
2022-10-17T08:32:33.062Z,3.30
2022-10-17T08:35:01.145Z,2.97
2022-10-17T08:37:30.353Z,3.13
2022-10-17T08:39:58.205Z,3.30
2022-10-17T08:42:35.396Z,2.93
2022-10-17T08:45:12.141Z,2.47
2022-10-17T08:47:42.553Z,2.50
2022-10-17T08:50:14.052Z,2.80
2022-10-17T08:52:44.305Z,2.90
2022-10-17T08:55:16.259Z,3.03
2022-10-17T08:57:44.069Z,2.43
2022-10-17T09:00:16.654Z,2.30
2022-10-17T09:02:54.240Z,2.57
2022-10-17T09:05:42.115Z,2.30
2022-10-17T09:08:18.752Z,2.97
2022-10-17T09:10:53.793Z,2.60
2022-10-17T09:13:30.910Z,2.43
2022-10-17T09:16:12.457Z,2.30
2022-10-17T09:18:42.433Z,2.50
2022-10-17T09:21:19.242Z,2.30
2022-10-17T09:23:51.282Z,2.17
2022-10-17T09:26:20.819Z,2.20
2022-10-17T09:28:53.809Z,2.23
2022-10-17T09:31:26.717Z,2.00
2022-10-17T09:33:57.001Z,2.00
2022-10-17T09:36:27.584Z,2.53
2022-10-17T09:38:57.686Z,2.30
2022-10-17T09:41:44.999Z,2.53
2022-10-17T09:44:17.868Z,2.47
2022-10-17T09:46:56.700Z,2.17
2022-10-17T09:49:29.729Z,2.30
2022-10-17T09:51:57.328Z,1.93
2022-10-17T09:54:27.167Z,1.83
2022-10-17T09:56:59.512Z,2.00
2022-10-17T09:59:32.446Z,2.40
2022-10-17T10:02:09.501Z,1.80
2022-10-17T10:04:59.647Z,2.13
2022-10-17T10:07:29.245Z,1.77
2022-10-17T10:09:57.794Z,1.97
2022-10-17T10:12:27.466Z,2.23
2022-10-17T10:14:55.580Z,2.50
2022-10-17T10:17:35.576Z,1.80
2022-10-17T10:20:26.506Z,1.97
2022-10-17T10:23:08.377Z,1.90
2022-10-17T10:25:36.674Z,1.90
2022-10-17T10:28:11.113Z,2.10
2022-10-17T10:30:39.953Z,2.17
2022-10-17T10:33:11.550Z,1.80
2022-10-17T10:35:40.772Z,1.90
2022-10-17T10:38:14.656Z,2.10
2022-10-17T10:40:47.489Z,2.03
2022-10-17T10:43:23.628Z,2.00
2022-10-17T10:45:52.416Z,2.00
2022-10-17T10:48:23.145Z,2.50
2022-10-17T10:50:55.111Z,2.07
2022-10-17T10:53:40.185Z,2.30
2022-10-17T10:56:12.815Z,2.17
2022-10-17T10:58:50.892Z,2.10
2022-10-17T11:01:28.470Z,2.17
2022-10-17T11:04:14.879Z,2.00
2022-10-17T11:06:46.062Z,2.33
2022-10-17T11:09:19.413Z,1.93
2022-10-17T11:11:51.172Z,2.00
2022-10-17T11:14:22.158Z,1.90
2022-10-17T11:16:55.013Z,2.63
2022-10-17T11:19:29.748Z,1.73
2022-10-17T11:22:06.875Z,1.90
2022-10-17T11:24:38.423Z,1.73
2022-10-17T11:27:07.370Z,2.10
2022-10-17T11:29:36.507Z,2.23
2022-10-17T11:32:08.119Z,2.43
2022-10-17T11:34:38.293Z,2.00
2022-10-17T11:37:13.331Z,1.97
2022-10-17T11:42:16.727Z,2.33
2022-10-17T11:44:44.599Z,2.30
2022-10-17T11:47:15.509Z,2.17
2022-10-17T11:49:49.973Z,2.50
2022-10-17T11:52:44.299Z,2.20
2022-10-17T11:55:20.323Z,2.10
2022-10-17T11:57:56.077Z,2.40
2022-10-17T12:00:31.383Z,2.37
2022-10-17T12:03:08.545Z,2.10
2022-10-17T12:05:42.339Z,2.10
2022-10-17T12:08:18.092Z,2.40
2022-10-17T12:10:50.869Z,2.60
2022-10-17T12:13:48.338Z,2.50
2022-10-17T12:16:46.648Z,2.97
2022-10-17T12:19:38.558Z,2.13
2022-10-17T12:22:23.338Z,2.70
2022-10-17T12:24:57.758Z,2.13
2022-10-17T12:27:34.445Z,2.00
2022-10-17T12:30:02.895Z,2.50
2022-10-17T12:32:46.973Z,2.13
2022-10-17T12:35:22.978Z,2.00
2022-10-17T12:38:28.164Z,2.57
2022-10-17T12:41:07.607Z,2.27
2022-10-17T12:43:42.643Z,2.30
2022-10-17T12:46:12.393Z,2.70
2022-10-17T12:49:05.686Z,2.40
2022-10-17T12:52:06.713Z,2.58
2022-10-17T12:54:47.641Z,2.00
2022-10-17T12:57:26.762Z,2.17
2022-10-17T12:59:57.971Z,2.20
2022-10-17T13:02:28.923Z,2.05
2022-10-17T13:05:08.855Z,2.20
2022-10-17T13:07:37.133Z,2.83
2022-10-17T13:10:05.944Z,2.50
2022-10-17T13:12:41.105Z,2.50
2022-10-17T13:15:12.612Z,1.80
2022-10-17T13:17:43.064Z,2.47
2022-10-17T13:20:25.546Z,2.30
2022-10-17T13:22:57.706Z,2.22
2022-10-17T13:25:28.203Z,2.40
2022-10-17T13:28:14.459Z,2.40
2022-10-17T13:30:49.626Z,2.30
2022-10-17T13:33:31.791Z,2.38
2022-10-17T13:36:00.816Z,3.35
2022-10-17T13:38:32.309Z,2.22
2022-10-17T13:41:16.590Z,2.10
2022-10-17T13:43:49.611Z,2.33
2022-10-17T13:46:37.813Z,2.38
2022-10-17T13:49:23.182Z,2.50
2022-10-17T13:51:54.896Z,2.42
2022-10-17T13:54:40.121Z,2.40
2022-10-17T13:57:19.105Z,2.67
2022-10-17T13:59:50.770Z,2.17
2022-10-17T14:02:21.301Z,2.25
2022-10-17T14:05:15.780Z,2.30
2022-10-17T14:08:09.523Z,2.33
2022-10-17T14:10:31.157Z,2.67
2022-10-17T14:12:59.267Z,2.45
2022-10-17T14:15:30.016Z,2.58
2022-10-17T14:18:00.839Z,2.40
2022-10-17T14:23:34.372Z,2.53
2022-10-17T14:26:10.384Z,2.33
2022-10-17T14:28:39.714Z,2.13
2022-10-17T14:31:15.038Z,2.27
2022-10-17T14:33:49.672Z,2.65
2022-10-17T14:36:18.536Z,2.50
2022-10-17T14:38:47.608Z,2.93
2022-10-17T14:44:07.983Z,2.50
2022-10-17T14:46:38.840Z,2.80
2022-10-17T14:49:08.069Z,2.50
2022-10-17T14:51:50.220Z,2.17
2022-10-17T14:54:26.959Z,2.57
2022-10-17T14:56:55.923Z,2.60
2022-10-17T14:59:52.064Z,2.70
2022-10-17T15:02:14.547Z,2.27
2022-10-17T15:04:42.244Z,2.90
2022-10-17T15:07:13.560Z,2.37
2022-10-17T15:09:41.652Z,2.37
2022-10-17T15:12:15.008Z,2.70
2022-10-17T15:14:43.301Z,2.37
2022-10-17T15:17:20.724Z,2.30
2022-10-17T15:19:49.104Z,2.10
2022-10-17T15:22:19.242Z,2.50
2022-10-17T15:24:47.489Z,2.30
2022-10-17T15:27:17.423Z,2.30
2022-10-17T15:29:45.717Z,2.50
2022-10-17T15:32:15.377Z,2.50
2022-10-17T15:34:43.694Z,2.20
2022-10-17T15:37:20.854Z,2.20
2022-10-17T15:39:53.404Z,2.90
2022-10-17T15:42:23.412Z,2.80
2022-10-17T15:44:51.078Z,2.60
2022-10-17T15:47:25.407Z,2.40
2022-10-17T15:49:53.422Z,2.20
2022-10-17T15:52:21.407Z,2.63
2022-10-17T15:54:48.996Z,2.73
2022-10-17T15:57:19.889Z,2.57
2022-10-17T15:59:47.954Z,2.40
2022-10-17T16:02:16.432Z,2.57
2022-10-17T16:04:47.783Z,2.23
2022-10-17T16:07:15.662Z,2.47
2022-10-17T16:09:43.701Z,2.27
2022-10-17T16:12:14.594Z,2.30
2022-10-17T16:14:42.493Z,3.00
2022-10-17T16:17:12.104Z,2.73
2022-10-17T16:19:40.115Z,2.47
2022-10-17T16:22:19.073Z,2.93
2022-10-17T16:24:47.285Z,2.40
2022-10-17T16:27:15.530Z,2.23
2022-10-17T16:29:43.793Z,2.93
2022-10-17T16:32:12.100Z,3.20
2022-10-17T16:34:40.326Z,2.77
2022-10-17T16:37:10.225Z,2.43
2022-10-17T16:39:38.389Z,2.77
2022-10-17T16:42:06.557Z,2.80
2022-10-17T16:44:34.446Z,2.90
2022-10-17T16:47:05.509Z,2.47
2022-10-17T16:49:33.726Z,2.60
2022-10-17T16:52:02.037Z,3.10
2022-10-17T16:54:31.782Z,2.40
2022-10-17T16:57:03.356Z,2.47
2022-10-17T16:59:35.340Z,3.20
2022-10-17T17:02:03.745Z,2.87
2022-10-17T17:04:32.205Z,2.87
2022-10-17T17:07:00.456Z,2.73
2022-10-17T17:09:28.713Z,2.67
2022-10-17T17:11:58.598Z,2.70
2022-10-17T17:14:26.896Z,2.83
2022-10-17T17:17:02.343Z,3.17
2022-10-17T17:19:32.803Z,3.10
2022-10-17T17:22:01.428Z,2.67
2022-10-17T17:24:29.364Z,2.90
2022-10-17T17:26:58.354Z,2.90
2022-10-17T17:29:26.176Z,2.80
2022-10-17T17:31:53.964Z,2.70
2022-10-17T17:34:22.077Z,3.70
2022-10-17T17:36:49.700Z,2.80
2022-10-17T17:39:17.533Z,2.63
2022-10-17T17:41:48.550Z,3.50
2022-10-17T17:44:17.435Z,2.77
2022-10-17T17:46:45.631Z,3.13
2022-10-17T17:49:13.485Z,3.07
2022-10-17T17:51:41.797Z,2.93
2022-10-17T17:54:11.419Z,2.70
2022-10-17T17:56:39.539Z,3.60
2022-10-17T17:59:07.252Z,2.73
2022-10-17T18:01:39.252Z,2.87
2022-10-17T18:04:09.139Z,2.57
2022-10-17T18:06:38.151Z,3.10
2022-10-17T18:09:07.314Z,2.70
2022-10-17T18:11:35.882Z,2.50
2022-10-17T18:14:06.348Z,2.60
2022-10-17T18:16:37.194Z,3.23
2022-10-17T18:19:07.111Z,2.93
2022-10-17T18:21:35.428Z,2.77
2022-10-17T18:24:04.624Z,3.23
2022-10-17T18:26:32.328Z,3.00
2022-10-17T18:29:00.260Z,2.87
2022-10-17T18:31:32.046Z,2.77
2022-10-17T18:34:01.335Z,2.77
2022-10-17T18:36:30.365Z,3.37
2022-10-17T18:38:58.511Z,2.97
2022-10-17T18:41:27.261Z,3.03
2022-10-17T18:43:56.286Z,3.33
2022-10-17T18:46:25.485Z,3.50
2022-10-17T18:48:53.789Z,2.83
2022-10-17T18:51:24.837Z,3.10
2022-10-17T18:53:54.064Z,3.50
2022-10-17T18:56:22.631Z,3.00
2022-10-17T18:58:50.425Z,3.10
2022-10-17T19:01:19.809Z,3.40
2022-10-17T19:03:48.963Z,3.27
2022-10-17T19:06:20.451Z,3.17
2022-10-17T19:08:49.982Z,3.13
2022-10-17T19:11:19.125Z,3.10
2022-10-17T19:13:47.798Z,3.40
2022-10-17T19:16:17.312Z,2.50
2022-10-17T19:18:49.585Z,3.53
2022-10-17T19:21:21.668Z,3.07
2022-10-17T19:23:53.060Z,2.90
2022-10-17T19:26:21.668Z,3.50
2022-10-17T19:28:52.106Z,3.70
2022-10-17T19:31:25.411Z,3.20
2022-10-17T19:33:54.371Z,3.30
2022-10-17T19:36:23.586Z,3.00
2022-10-17T19:38:55.379Z,3.50
2022-10-17T19:41:23.589Z,3.10
2022-10-17T19:43:51.520Z,3.07
2022-10-17T19:46:21.009Z,3.27
2022-10-17T19:48:49.717Z,3.33
2022-10-17T19:51:18.588Z,2.67
2022-10-17T19:53:46.738Z,2.70
2022-10-17T19:56:18.496Z,2.97
2022-10-17T19:58:46.583Z,2.83
2022-10-17T20:01:15.814Z,3.40
2022-10-17T20:03:43.687Z,3.60
2022-10-17T20:06:11.645Z,3.03
2022-10-17T20:08:39.841Z,3.20
2022-10-17T20:11:09.475Z,2.77
2022-10-17T20:13:38.955Z,3.30
2022-10-17T20:16:08.200Z,3.10
2022-10-17T20:18:36.235Z,2.53
2022-10-17T20:21:14.535Z,3.00
2022-10-17T20:23:43.452Z,3.27
2022-10-17T20:26:26.026Z,2.87
2022-10-17T20:29:04.528Z,2.77
2022-10-17T20:31:32.298Z,2.77
2022-10-17T20:34:00.765Z,3.03
2022-10-17T20:36:28.671Z,3.13
2022-10-17T20:38:56.572Z,3.63
2022-10-17T20:41:24.858Z,3.17
2022-10-17T20:43:53.437Z,3.23
2022-10-17T20:46:36.368Z,3.27
2022-10-17T20:49:05.240Z,3.43
2022-10-17T20:51:33.046Z,3.10
2022-10-17T20:54:00.806Z,3.10
2022-10-17T20:56:29.846Z,3.20
2022-10-17T20:58:58.930Z,2.93
2022-10-17T21:01:29.154Z,2.97
2022-10-17T21:03:59.744Z,3.60
2022-10-17T21:06:33.988Z,3.03
2022-10-17T21:09:01.541Z,3.63
2022-10-17T21:11:29.947Z,3.27
2022-10-17T21:13:59.439Z,3.00
2022-10-17T21:16:29.892Z,3.67
2022-10-17T21:18:58.148Z,3.07
2022-10-17T21:21:27.399Z,3.33
2022-10-17T21:23:56.400Z,3.47
2022-10-17T21:26:24.416Z,3.60
2022-10-17T21:28:52.129Z,3.50
2022-10-17T21:31:21.286Z,3.80
2022-10-17T21:33:51.733Z,3.17
2022-10-17T21:36:19.988Z,3.40
2022-10-17T21:38:48.679Z,3.57
2022-10-17T21:41:17.788Z,3.17
2022-10-17T21:43:47.380Z,3.40
2022-10-17T21:46:16.569Z,3.50
2022-10-17T21:48:44.661Z,3.03
2022-10-17T21:51:16.977Z,4.47
2022-10-17T21:53:45.112Z,4.33
2022-10-17T21:56:14.727Z,3.73
2022-10-17T21:58:42.772Z,3.40
2022-10-17T22:01:12.529Z,3.53
2022-10-17T22:03:47.803Z,3.50
2022-10-17T22:09:09.760Z,3.53
2022-10-17T22:11:37.550Z,3.63
2022-10-17T22:14:07.764Z,3.43
2022-10-17T22:16:35.740Z,4.00
2022-10-17T22:19:06.416Z,4.03
2022-10-17T22:21:38.922Z,3.70
2022-10-17T22:24:09.213Z,3.50
2022-10-17T22:26:38.017Z,3.53
2022-10-17T22:29:05.916Z,3.50
2022-10-17T22:31:33.725Z,3.50
2022-10-17T22:34:01.643Z,3.87
2022-10-17T22:36:30.113Z,3.43
2022-10-17T22:38:59.116Z,3.60
2022-10-17T22:41:27.242Z,4.00
2022-10-17T22:43:55.057Z,3.80
2022-10-17T22:46:23.016Z,3.90
2022-10-17T22:48:51.224Z,3.30
2022-10-17T22:51:19.646Z,3.93
2022-10-17T22:53:48.054Z,3.80
2022-10-17T22:56:21.956Z,3.20
2022-10-17T22:58:50.480Z,3.30
2022-10-17T23:01:21.185Z,3.53
2022-10-17T23:03:55.476Z,4.23
2022-10-17T23:06:24.043Z,3.30
2022-10-17T23:08:52.882Z,3.30
2022-10-17T23:11:22.748Z,3.37
2022-10-17T23:13:51.207Z,3.23
2022-10-17T23:16:19.641Z,3.40
2022-10-17T23:18:49.460Z,3.57
2022-10-17T23:21:17.794Z,3.60
2022-10-17T23:23:45.553Z,3.60
2022-10-17T23:26:19.989Z,4.03
2022-10-17T23:28:51.199Z,3.23
2022-10-17T23:31:20.785Z,3.50
2022-10-17T23:33:51.266Z,3.70
2022-10-17T23:36:21.796Z,3.60
2022-10-17T23:38:53.717Z,3.73
2022-10-17T23:41:24.653Z,3.70
2022-10-17T23:43:53.994Z,4.20
2022-10-17T23:46:22.006Z,4.10
2022-10-17T23:48:49.717Z,4.13
2022-10-17T23:51:17.522Z,3.60
2022-10-17T23:53:46.093Z,4.10
2022-10-17T23:56:13.796Z,4.10
2022-10-17T23:58:42.011Z,4.03
